createdAt,value
2022-12-13T00:02:15.847Z,0.50
2022-12-13T00:04:46.156Z,0.52
2022-12-13T00:07:16.409Z,0.60
2022-12-13T00:09:46.676Z,0.43
2022-12-13T00:12:17.043Z,0.80
2022-12-13T00:14:47.397Z,0.88
2022-12-13T00:17:17.727Z,0.60
2022-12-13T00:19:49.989Z,0.77
2022-12-13T00:22:20.177Z,0.60
2022-12-13T00:24:50.379Z,0.60
2022-12-13T00:27:20.630Z,0.50
2022-12-13T00:29:50.894Z,0.43
2022-12-13T00:32:21.343Z,0.50
2022-12-13T00:34:51.636Z,0.70
2022-12-13T00:37:21.886Z,0.70
2022-12-13T00:39:52.171Z,0.68
2022-12-13T00:42:22.395Z,0.60
2022-12-13T00:44:52.723Z,0.80
2022-12-13T00:47:24.145Z,0.65
2022-12-13T00:49:54.411Z,0.60
2022-12-13T00:52:24.794Z,1.08
2022-12-13T00:54:55.105Z,0.32
2022-12-13T00:57:25.454Z,0.60
2022-12-13T00:59:55.800Z,0.50
2022-12-13T01:02:26.040Z,1.08
2022-12-13T01:04:56.342Z,0.40
2022-12-13T01:07:26.631Z,0.68
2022-12-13T01:09:56.856Z,0.50
2022-12-13T01:12:27.908Z,0.60
2022-12-13T01:14:58.414Z,0.50
2022-12-13T01:17:29.321Z,0.63
2022-12-13T01:20:02.851Z,0.60
2022-12-13T01:22:33.055Z,0.60
2022-12-13T01:25:03.266Z,0.60
2022-12-13T01:27:33.549Z,0.55
2022-12-13T01:30:03.856Z,0.40
2022-12-13T01:32:34.087Z,0.68
2022-12-13T01:35:04.382Z,0.77
2022-12-13T01:37:37.356Z,0.35
2022-12-13T01:40:15.727Z,0.50
2022-12-13T01:42:46.695Z,0.43
2022-12-13T01:45:27.787Z,0.57
2022-12-13T01:48:21.604Z,0.50
2022-12-13T01:50:55.389Z,0.43
2022-12-13T01:53:29.732Z,0.38
2022-12-13T01:56:14.556Z,0.52
2022-12-13T01:58:45.194Z,0.45
2022-12-13T02:01:15.524Z,0.50
2022-12-13T02:03:46.765Z,0.40
2022-12-13T02:06:30.520Z,0.50
2022-12-13T02:09:01.193Z,0.50
2022-12-13T02:11:32.183Z,0.43
2022-12-13T02:14:02.730Z,0.40
2022-12-13T02:16:59.921Z,0.43
2022-12-13T02:19:48.271Z,0.50
2022-12-13T02:22:35.160Z,0.60
2022-12-13T02:25:08.628Z,0.50
2022-12-13T02:28:02.650Z,0.50
2022-12-13T02:30:47.330Z,0.63
2022-12-13T02:33:26.403Z,0.93
2022-12-13T02:36:11.172Z,0.60
2022-12-13T02:39:30.570Z,0.40
2022-12-13T02:42:22.038Z,0.60
2022-12-13T02:45:15.738Z,0.52
2022-12-13T02:47:51.430Z,0.50
2022-12-13T02:50:22.806Z,0.60
2022-12-13T02:52:55.094Z,0.50
2022-12-13T02:55:28.489Z,0.32
2022-12-13T02:57:58.781Z,0.40
2022-12-13T03:00:50.762Z,0.47
2022-12-13T03:03:33.955Z,0.30
2022-12-13T03:06:25.563Z,0.57
2022-12-13T03:09:32.389Z,0.55
2022-12-13T03:12:51.095Z,0.50
2022-12-13T03:15:45.283Z,1.17
2022-12-13T03:18:22.306Z,0.50
2022-12-13T03:21:10.692Z,0.65
2022-12-13T03:23:41.476Z,0.40
2022-12-13T03:26:13.012Z,0.30
2022-12-13T03:28:45.995Z,0.55
2022-12-13T03:31:18.920Z,0.50
2022-12-13T03:33:49.354Z,0.63
2022-12-13T03:36:20.678Z,0.57
2022-12-13T03:38:54.097Z,0.40
2022-12-13T03:41:33.082Z,0.70
2022-12-13T03:44:07.941Z,0.47
2022-12-13T03:46:38.573Z,0.35
2022-12-13T03:49:11.349Z,0.50
2022-12-13T03:51:46.988Z,0.63
2022-12-13T03:54:19.439Z,0.40
2022-12-13T03:56:49.663Z,0.20
2022-12-13T03:59:19.996Z,0.52
2022-12-13T04:01:50.270Z,0.40
2022-12-13T04:04:20.524Z,0.30
2022-12-13T04:06:50.711Z,0.40
2022-12-13T04:09:20.870Z,0.47
2022-12-13T04:12:09.863Z,0.40
2022-12-13T04:14:40.284Z,0.40
2022-12-13T04:17:10.649Z,0.40
2022-12-13T04:19:41.120Z,0.50
2022-12-13T04:22:11.623Z,0.30
2022-12-13T04:24:42.028Z,0.50
2022-12-13T04:27:12.537Z,0.40
2022-12-13T04:29:42.830Z,0.32
2022-12-13T04:32:26.708Z,0.38
2022-12-13T04:35:00.823Z,0.60
2022-12-13T04:37:32.955Z,0.73
2022-12-13T04:40:03.234Z,0.60
2022-12-13T04:42:33.499Z,0.43
2022-12-13T04:45:03.850Z,0.40
2022-12-13T04:47:34.075Z,0.30
2022-12-13T04:50:04.297Z,0.30
2022-12-13T04:52:34.608Z,0.43
2022-12-13T04:55:04.807Z,0.60
2022-12-13T04:57:35.139Z,0.65
2022-12-13T05:00:07.006Z,0.40
2022-12-13T05:02:37.235Z,0.22
2022-12-13T05:05:07.685Z,0.32
2022-12-13T05:07:42.279Z,0.40
2022-12-13T05:10:33.858Z,0.38
2022-12-13T05:13:06.731Z,0.30
2022-12-13T05:15:37.527Z,0.30
2022-12-13T05:18:11.015Z,0.40
2022-12-13T05:20:42.347Z,0.90
2022-12-13T05:23:12.737Z,0.43
2022-12-13T05:25:43.249Z,1.20
2022-12-13T05:28:27.678Z,0.70
2022-12-13T05:31:02.280Z,0.43
2022-12-13T05:33:32.445Z,0.50
2022-12-13T05:36:02.650Z,0.22
2022-12-13T05:38:33.223Z,0.55
2022-12-13T05:41:03.722Z,0.55
2022-12-13T05:43:42.192Z,0.93
2022-12-13T05:46:17.333Z,0.43
2022-12-13T05:48:47.863Z,0.40
2022-12-13T05:51:18.131Z,0.57
2022-12-13T05:53:53.246Z,0.28
2022-12-13T05:56:26.556Z,0.35
2022-12-13T05:58:56.804Z,0.43
2022-12-13T06:01:27.006Z,0.40
2022-12-13T06:03:57.266Z,0.40
2022-12-13T06:06:27.644Z,0.30
2022-12-13T06:08:57.928Z,0.40
2022-12-13T06:11:31.988Z,0.40
2022-12-13T06:14:02.767Z,0.52
2022-12-13T06:16:32.988Z,0.52
2022-12-13T06:19:04.557Z,0.32
2022-12-13T06:21:43.579Z,0.50
2022-12-13T06:24:17.477Z,0.20
2022-12-13T06:26:48.600Z,0.28
2022-12-13T06:29:24.494Z,0.32
2022-12-13T06:32:01.035Z,0.40
2022-12-13T06:34:36.167Z,0.30
2022-12-13T06:37:09.477Z,0.20
2022-12-13T06:39:40.051Z,0.30
2022-12-13T06:42:22.097Z,0.40
2022-12-13T06:44:56.154Z,0.35
2022-12-13T06:47:31.372Z,0.28
2022-12-13T06:50:05.103Z,0.40
2022-12-13T06:52:36.829Z,0.40
2022-12-13T06:55:07.541Z,0.47
2022-12-13T06:57:38.015Z,0.70
2022-12-13T07:00:12.551Z,0.50
2022-12-13T07:02:43.006Z,0.55
2022-12-13T07:05:14.205Z,0.65
2022-12-13T07:07:44.523Z,0.68
2022-12-13T07:10:21.741Z,0.47
2022-12-13T07:12:53.043Z,0.57
2022-12-13T07:15:23.268Z,0.82
2022-12-13T07:17:54.229Z,0.35
2022-12-13T07:20:25.194Z,0.70
2022-12-13T07:22:59.263Z,0.50
2022-12-13T07:25:31.169Z,0.60
2022-12-13T07:28:06.855Z,0.60
2022-12-13T07:30:41.984Z,0.63
2022-12-13T07:33:13.181Z,0.30
2022-12-13T07:35:55.445Z,0.40
2022-12-13T07:38:35.597Z,0.32
2022-12-13T07:41:07.283Z,0.35
2022-12-13T07:43:38.281Z,0.30
2022-12-13T07:46:09.970Z,0.30
2022-12-13T07:48:40.337Z,0.43
2022-12-13T07:51:13.432Z,0.35
2022-12-13T07:53:44.305Z,0.40
2022-12-13T07:56:17.867Z,0.40
2022-12-13T07:58:49.050Z,0.50
2022-12-13T08:01:20.149Z,0.40
2022-12-13T08:03:53.563Z,0.43
2022-12-13T08:06:23.761Z,0.50
2022-12-13T08:09:00.812Z,0.30
2022-12-13T08:11:31.070Z,0.50
2022-12-13T08:14:01.397Z,0.45
2022-12-13T08:16:32.112Z,0.30
2022-12-13T08:19:04.534Z,0.65
2022-12-13T08:22:01.617Z,0.40
2022-12-13T08:24:33.488Z,0.57
2022-12-13T08:27:05.471Z,0.60
2022-12-13T08:29:37.094Z,0.60
2022-12-13T08:32:13.451Z,0.70
2022-12-13T08:34:44.454Z,1.52
2022-12-13T08:37:15.603Z,1.40
2022-12-13T08:39:48.798Z,0.63
2022-12-13T08:42:20.554Z,0.88
2022-12-13T08:44:56.177Z,0.60
2022-12-13T08:47:29.229Z,0.70
2022-12-13T08:50:04.527Z,0.73
2022-12-13T08:52:39.770Z,1.05
2022-12-13T08:55:14.006Z,0.68
2022-12-13T08:57:46.003Z,0.70
2022-12-13T09:00:24.212Z,0.75
2022-12-13T09:02:59.661Z,0.57
2022-12-13T09:05:33.561Z,0.52
2022-12-13T09:08:24.105Z,0.95
2022-12-13T09:11:10.810Z,0.52
2022-12-13T09:13:51.768Z,0.70
2022-12-13T09:16:27.545Z,0.60
2022-12-13T09:19:25.193Z,0.40
2022-12-13T09:22:02.860Z,0.60
2022-12-13T09:24:36.747Z,0.50
2022-12-13T09:27:28.008Z,0.70
2022-12-13T09:29:59.128Z,0.73
2022-12-13T09:32:30.078Z,0.43
2022-12-13T09:35:00.306Z,0.50
2022-12-13T09:37:31.993Z,0.60
2022-12-13T09:40:15.977Z,0.50
2022-12-13T09:43:21.665Z,0.70
2022-12-13T09:45:52.317Z,0.50
2022-12-13T09:48:34.990Z,1.20
2022-12-13T09:51:17.306Z,0.50
2022-12-13T09:53:57.597Z,0.60
2022-12-13T09:56:28.521Z,0.40
2022-12-13T09:59:00.437Z,0.50
2022-12-13T10:01:30.884Z,0.50
2022-12-13T10:04:03.501Z,0.40
2022-12-13T10:06:36.336Z,0.80
2022-12-13T10:09:12.970Z,0.73
2022-12-13T10:11:57.488Z,0.52
2022-12-13T10:14:42.062Z,0.70
2022-12-13T10:17:21.132Z,0.32
2022-12-13T10:19:53.305Z,0.75
2022-12-13T10:22:27.424Z,0.75
2022-12-13T10:25:07.478Z,0.60
2022-12-13T10:27:46.235Z,0.35
2022-12-13T10:30:28.354Z,0.55
2022-12-13T10:33:02.079Z,0.50
2022-12-13T10:35:44.026Z,0.30
2022-12-13T10:38:31.923Z,0.60
2022-12-13T10:41:02.674Z,0.40
2022-12-13T10:43:34.133Z,0.60
2022-12-13T10:46:05.769Z,0.80
2022-12-13T10:48:39.428Z,0.80
2022-12-13T10:51:13.287Z,0.70
2022-12-13T10:53:49.190Z,0.70
2022-12-13T10:56:23.115Z,0.60
2022-12-13T10:59:34.928Z,0.40
2022-12-13T11:02:34.728Z,0.70
2022-12-13T11:05:41.414Z,0.47
2022-12-13T11:08:33.970Z,0.47
2022-12-13T11:11:09.034Z,0.60
2022-12-13T11:13:44.951Z,0.77
2022-12-13T11:16:29.899Z,0.50
2022-12-13T11:19:04.798Z,0.40
2022-12-13T11:21:38.992Z,0.30
2022-12-13T11:24:11.191Z,0.52
2022-12-13T11:26:44.547Z,0.57
2022-12-13T11:29:17.875Z,0.60
2022-12-13T11:32:23.083Z,0.40
2022-12-13T11:34:56.923Z,0.70
2022-12-13T11:37:42.486Z,0.52
2022-12-13T11:40:29.581Z,0.52
2022-12-13T11:43:20.787Z,0.60
2022-12-13T11:46:00.085Z,0.35
2022-12-13T11:48:36.436Z,0.90
2022-12-13T11:51:10.714Z,0.43
2022-12-13T11:54:03.212Z,0.60
2022-12-13T11:56:56.279Z,0.50
2022-12-13T11:59:46.785Z,0.60
2022-12-13T12:02:46.025Z,0.80
2022-12-13T12:05:45.073Z,0.30
2022-12-13T12:08:36.444Z,0.55
2022-12-13T12:11:17.879Z,0.47
2022-12-13T12:13:59.619Z,0.63
2022-12-13T12:16:53.938Z,0.75
2022-12-13T12:19:38.723Z,0.90
2022-12-13T12:22:16.733Z,1.40
2022-12-13T12:25:01.923Z,1.25
2022-12-13T12:27:56.510Z,1.60
2022-12-13T12:30:48.070Z,2.05
2022-12-13T12:33:36.288Z,1.50
2022-12-13T12:36:51.418Z,1.52
2022-12-13T12:39:42.383Z,1.90
2022-12-13T12:42:36.625Z,1.70
2022-12-13T12:45:55.335Z,1.80
2022-12-13T12:49:01.136Z,1.55
2022-12-13T12:51:35.582Z,2.10
2022-12-13T12:54:20.602Z,2.00
2022-12-13T12:57:18.808Z,1.63
2022-12-13T13:00:17.214Z,1.80
2022-12-13T13:03:18.720Z,1.85
2022-12-13T13:06:02.113Z,1.85
2022-12-13T13:08:54.975Z,1.80
2022-12-13T13:11:42.866Z,1.40
2022-12-13T13:14:36.529Z,1.52
2022-12-13T13:17:25.175Z,1.55
2022-12-13T13:20:17.978Z,1.38
2022-12-13T13:23:04.015Z,1.50
2022-12-13T13:25:54.312Z,1.55
2022-12-13T13:28:29.286Z,1.33
2022-12-13T13:31:17.678Z,1.73
2022-12-13T13:33:54.100Z,1.10
2022-12-13T13:36:46.382Z,1.45
2022-12-13T13:39:55.693Z,1.38
2022-12-13T13:42:26.695Z,1.27
2022-12-13T13:45:03.413Z,1.30
2022-12-13T13:47:42.074Z,1.60
2022-12-13T13:50:30.977Z,1.38
2022-12-13T13:53:31.284Z,1.23
2022-12-13T13:56:19.743Z,1.20
2022-12-13T13:58:55.764Z,1.50
2022-12-13T14:01:56.948Z,1.67
2022-12-13T14:04:55.923Z,1.30
2022-12-13T14:07:47.312Z,1.33
2022-12-13T14:10:29.326Z,1.40
2022-12-13T14:13:20.811Z,1.52
2022-12-13T14:16:28.398Z,1.40
2022-12-13T14:19:02.017Z,1.02
2022-12-13T14:22:08.396Z,1.17
2022-12-13T14:24:54.043Z,1.10
2022-12-13T14:27:42.444Z,1.38
2022-12-13T14:30:28.677Z,1.27
2022-12-13T14:33:00.085Z,1.08
2022-12-13T14:35:33.361Z,1.50
2022-12-13T14:38:22.887Z,0.98
2022-12-13T14:40:58.456Z,0.88
2022-12-13T14:43:34.272Z,1.35
2022-12-13T14:46:09.748Z,1.30
2022-12-13T14:48:52.773Z,0.82
2022-12-13T14:51:38.080Z,1.00
2022-12-13T14:54:10.717Z,0.93
2022-12-13T14:57:03.640Z,0.80
2022-12-13T14:59:35.352Z,1.02
2022-12-13T15:02:07.592Z,1.35
2022-12-13T15:04:39.550Z,0.90
2022-12-13T15:07:28.900Z,0.93
2022-12-13T15:10:05.765Z,0.95
2022-12-13T15:12:36.085Z,0.80
2022-12-13T15:15:22.993Z,1.00
2022-12-13T15:18:18.992Z,0.90
2022-12-13T15:20:51.594Z,0.80
2022-12-13T15:23:48.648Z,0.73
2022-12-13T15:26:30.073Z,1.13
2022-12-13T15:29:10.570Z,0.80
2022-12-13T15:31:42.509Z,1.13
2022-12-13T15:34:31.282Z,0.88
2022-12-13T15:37:08.963Z,0.73
2022-12-13T15:40:08.053Z,0.93
2022-12-13T15:42:41.686Z,0.60
2022-12-13T15:45:36.364Z,0.75
2022-12-13T15:48:07.674Z,0.60
2022-12-13T15:50:47.209Z,0.70
2022-12-13T15:53:29.090Z,0.80
2022-12-13T15:56:02.257Z,0.80
2022-12-13T15:58:38.486Z,0.85
2022-12-13T16:01:09.002Z,0.68
2022-12-13T16:03:48.875Z,0.80
2022-12-13T16:06:24.750Z,0.63
2022-12-13T16:09:00.637Z,0.70
2022-12-13T16:11:35.628Z,0.52
2022-12-13T16:14:33.225Z,0.40
2022-12-13T16:17:08.090Z,0.93
2022-12-13T16:19:39.033Z,0.60
2022-12-13T16:22:09.791Z,0.73
2022-12-13T16:24:40.518Z,0.52
2022-12-13T16:27:12.469Z,0.90
2022-12-13T16:29:42.980Z,0.70
2022-12-13T16:32:13.863Z,0.63
2022-12-13T16:34:44.123Z,0.70
2022-12-13T16:37:25.615Z,0.80
2022-12-13T16:39:57.577Z,0.60
2022-12-13T16:42:29.216Z,0.50
2022-12-13T16:45:32.493Z,0.52
2022-12-13T16:47:51.570Z,0.50
2022-12-13T16:50:23.163Z,0.60
2022-12-13T16:52:53.675Z,0.70
2022-12-13T16:55:23.911Z,0.70
2022-12-13T16:58:25.023Z,0.60
2022-12-13T17:00:59.188Z,0.68
2022-12-13T17:03:30.409Z,0.50
2022-12-13T17:06:00.649Z,0.80
2022-12-13T17:08:35.700Z,0.75
2022-12-13T17:11:06.788Z,0.60
2022-12-13T17:13:37.557Z,0.40
2022-12-13T17:16:08.396Z,0.35
2022-12-13T17:18:40.772Z,0.70
2022-12-13T17:21:12.666Z,0.40
2022-12-13T17:23:42.954Z,0.45
2022-12-13T17:26:14.349Z,0.50
2022-12-13T17:28:44.740Z,0.38
2022-12-13T17:31:15.519Z,0.35
2022-12-13T17:33:46.362Z,0.50
2022-12-13T17:36:17.932Z,0.32
2022-12-13T17:38:49.952Z,0.65
2022-12-13T17:41:20.520Z,0.43
2022-12-13T17:43:51.053Z,0.43
2022-12-13T17:46:22.111Z,0.47
2022-12-13T17:48:53.508Z,0.40
2022-12-13T17:51:23.774Z,0.35
2022-12-13T17:53:54.537Z,0.60
2022-12-13T17:56:25.016Z,0.40
2022-12-13T17:58:55.285Z,0.32
2022-12-13T18:01:27.216Z,0.50
2022-12-13T18:03:59.528Z,0.40
2022-12-13T18:06:30.066Z,0.30
2022-12-13T18:09:00.665Z,0.40
2022-12-13T18:11:33.750Z,0.30
2022-12-13T18:14:06.518Z,0.40
2022-12-13T18:16:39.109Z,0.30
2022-12-13T18:19:13.747Z,0.45
2022-12-13T18:21:46.945Z,0.55
2022-12-13T18:24:17.277Z,0.57
2022-12-13T18:26:47.572Z,0.40
2022-12-13T18:29:17.862Z,0.20
2022-12-13T18:31:48.444Z,0.20
2022-12-13T18:34:18.829Z,0.35
2022-12-13T18:36:49.044Z,0.50
2022-12-13T18:39:19.451Z,0.30
2022-12-13T18:41:49.779Z,0.30
2022-12-13T18:44:20.683Z,0.52
2022-12-13T18:46:52.362Z,0.40
2022-12-13T18:49:22.729Z,0.32
2022-12-13T18:51:53.188Z,0.32
2022-12-13T18:54:23.512Z,0.30
2022-12-13T18:56:53.698Z,0.30
2022-12-13T18:59:23.881Z,0.77
2022-12-13T19:01:54.361Z,0.75
2022-12-13T19:04:24.903Z,0.40
2022-12-13T19:06:55.404Z,0.77
2022-12-13T19:09:26.424Z,0.40
2022-12-13T19:11:58.644Z,0.30
2022-12-13T19:14:30.247Z,0.50
2022-12-13T19:17:00.643Z,0.45
2022-12-13T19:19:31.046Z,0.30
2022-12-13T19:22:01.234Z,0.32
2022-12-13T19:24:31.448Z,0.40
2022-12-13T19:27:01.726Z,0.30
2022-12-13T19:29:32.297Z,0.30
2022-12-13T19:32:02.517Z,0.30
2022-12-13T19:34:32.693Z,0.30
2022-12-13T19:37:06.541Z,0.30
2022-12-13T19:39:37.080Z,0.50
2022-12-13T19:42:07.462Z,0.30
2022-12-13T19:44:37.729Z,0.30
2022-12-13T19:47:08.659Z,0.50
2022-12-13T19:49:39.031Z,0.32
2022-12-13T19:52:09.303Z,0.30
2022-12-13T19:54:40.039Z,0.40
2022-12-13T19:57:10.561Z,0.30
2022-12-13T19:59:40.776Z,0.30
2022-12-13T20:02:14.980Z,0.50
2022-12-13T20:04:48.630Z,0.20
2022-12-13T20:07:18.867Z,0.40
2022-12-13T20:09:49.069Z,0.60
2022-12-13T20:12:19.319Z,0.40
2022-12-13T20:14:49.549Z,0.30
2022-12-13T20:17:19.740Z,0.50
2022-12-13T20:19:49.945Z,0.47
2022-12-13T20:22:20.194Z,0.40
2022-12-13T20:24:50.381Z,0.30
2022-12-13T20:27:21.596Z,0.32
2022-12-13T20:29:52.021Z,0.32
2022-12-13T20:32:23.605Z,0.22
2022-12-13T20:34:55.141Z,0.30
2022-12-13T20:37:25.641Z,0.50
2022-12-13T20:39:55.845Z,0.35
2022-12-13T20:42:26.330Z,0.32
2022-12-13T20:44:56.614Z,0.47
2022-12-13T20:47:26.994Z,0.20
2022-12-13T20:49:57.222Z,0.50
2022-12-13T20:52:27.416Z,0.25
2022-12-13T20:54:57.690Z,0.50
2022-12-13T20:57:27.953Z,0.57
2022-12-13T20:59:58.117Z,0.30
2022-12-13T21:02:29.144Z,0.35
2022-12-13T21:04:59.593Z,0.30
2022-12-13T21:07:49.573Z,0.28
2022-12-13T21:10:19.984Z,0.40
2022-12-13T21:12:50.296Z,0.40
2022-12-13T21:15:20.669Z,0.40
2022-12-13T21:17:50.896Z,0.55
2022-12-13T21:20:21.288Z,0.50
2022-12-13T21:22:51.569Z,0.47
2022-12-13T21:25:21.894Z,0.60
2022-12-13T21:27:52.059Z,0.77
2022-12-13T21:30:27.305Z,0.50
2022-12-13T21:32:57.576Z,0.30
2022-12-13T21:35:28.000Z,0.50
2022-12-13T21:38:03.630Z,0.43
2022-12-13T21:40:35.827Z,0.40
2022-12-13T21:43:06.257Z,0.40
2022-12-13T21:45:36.951Z,0.30
2022-12-13T21:48:07.487Z,0.50
2022-12-13T21:50:38.785Z,0.47
2022-12-13T21:53:08.982Z,0.40
2022-12-13T21:55:45.579Z,0.55
2022-12-13T21:58:36.369Z,0.40
2022-12-13T22:01:07.660Z,0.20
2022-12-13T22:03:38.015Z,0.40
2022-12-13T22:06:08.563Z,0.57
2022-12-13T22:08:41.376Z,0.43
2022-12-13T22:11:21.634Z,0.38
2022-12-13T22:13:52.163Z,0.40
2022-12-13T22:16:22.449Z,0.45
2022-12-13T22:18:55.736Z,0.65
2022-12-13T22:21:26.815Z,0.50
2022-12-13T22:23:57.833Z,0.57
2022-12-13T22:26:29.036Z,0.40
2022-12-13T22:29:00.504Z,0.65
2022-12-13T22:31:31.639Z,0.50
2022-12-13T22:34:01.866Z,0.35
2022-12-13T22:36:32.428Z,0.40
2022-12-13T22:39:03.136Z,0.70
2022-12-13T22:41:33.412Z,0.60
2022-12-13T22:44:03.687Z,0.70
2022-12-13T22:46:34.706Z,0.40
2022-12-13T22:49:05.273Z,0.68
2022-12-13T22:51:36.584Z,0.45
2022-12-13T22:54:07.120Z,0.50
2022-12-13T22:56:37.452Z,0.40
2022-12-13T22:59:11.525Z,0.45
2022-12-13T23:01:47.380Z,0.40
2022-12-13T23:04:18.040Z,0.57
2022-12-13T23:06:48.222Z,0.40
2022-12-13T23:09:18.561Z,0.50
2022-12-13T23:12:06.970Z,0.43
2022-12-13T23:14:37.900Z,0.50
2022-12-13T23:17:08.155Z,0.38
2022-12-13T23:19:48.684Z,0.45
2022-12-13T23:22:25.533Z,0.30
2022-12-13T23:24:56.001Z,0.52
2022-12-13T23:27:26.976Z,0.45
2022-12-13T23:29:57.259Z,0.52
2022-12-13T23:32:27.550Z,0.40
2022-12-13T23:34:57.765Z,0.40
2022-12-13T23:37:28.214Z,0.50
2022-12-13T23:39:58.431Z,0.50
2022-12-13T23:42:31.940Z,0.68
2022-12-13T23:45:02.163Z,0.38
2022-12-13T23:47:32.601Z,0.20
2022-12-13T23:50:02.831Z,0.50
2022-12-13T23:52:33.029Z,0.43
2022-12-13T23:55:03.624Z,0.55
2022-12-13T23:57:33.798Z,0.30
